Time;durP1;ratioP1;P1;durP2;ratioP2;P2;SDS_P1;SDS_P2;PMS_P1;PMS_P2;Temp;Humidity;BMP_temperature;BMP_pressure;BME280_temperature;BME280_humidity;BME280_pressure;Samples;Min_cycle;Max_cycle;Signal;HPM_P1;HPM_P2
2022/02/14 00:01:53;;;;;;;6.75;1.90;;;9.40;99.90;;;;;;5094669;28;20392;-74
2022/02/14 00:04:19;;;;;;;6.30;1.73;;;9.50;99.90;;;;;;5094148;28;20048;-74
2022/02/14 00:06:45;;;;;;;6.43;1.55;;;9.40;99.90;;;;;;5094570;28;20035;-74
2022/02/14 00:09:11;;;;;;;6.55;1.77;;;9.40;99.90;;;;;;5094199;28;20036;-74
2022/02/14 00:11:37;;;;;;;4.85;1.60;;;9.40;99.90;;;;;;5094208;28;20076;-74
2022/02/14 00:14:02;;;;;;;5.93;3.13;;;9.40;99.90;;;;;;5094110;28;20107;-74
2022/02/14 00:16:28;;;;;;;6.00;1.80;;;9.30;99.90;;;;;;5094386;28;20024;-74
2022/02/14 00:18:54;;;;;;;4.82;1.98;;;9.30;99.90;;;;;;5094270;28;20031;-74
2022/02/14 00:21:19;;;;;;;5.10;1.60;;;9.20;99.90;;;;;;5094021;28;20035;-74
2022/02/14 00:23:45;;;;;;;6.55;1.77;;;9.30;99.90;;;;;;5094243;28;20051;-74
2022/02/14 00:26:10;;;;;;;3.75;1.42;;;9.30;99.90;;;;;;5093950;28;20028;-74
2022/02/14 00:28:36;;;;;;;5.93;2.53;;;9.20;99.90;;;;;;5093337;28;20027;-74
2022/02/14 00:31:02;;;;;;;5.13;2.20;;;9.20;99.90;;;;;;5093628;28;20028;-74
2022/02/14 00:33:28;;;;;;;4.88;1.52;;;9.20;99.90;;;;;;5093840;28;20024;-74
2022/02/14 00:35:53;;;;;;;4.72;1.40;;;9.20;99.90;;;;;;5093761;28;20026;-74
2022/02/14 00:38:20;;;;;;;5.32;1.90;;;9.20;99.90;;;;;;5094011;28;20416;-73
2022/02/14 00:40:46;;;;;;;13.75;2.20;;;9.20;99.90;;;;;;5093726;28;20375;-74
2022/02/14 00:43:12;;;;;;;8.30;2.05;;;9.20;99.90;;;;;;5092363;28;20465;-74
2022/02/14 00:45:39;;;;;;;7.60;2.17;;;9.20;99.90;;;;;;5093613;28;20478;-74
2022/02/14 00:48:05;;;;;;;6.05;2.13;;;9.20;99.90;;;;;;5093877;28;20373;-74
2022/02/14 00:50:31;;;;;;;8.43;2.70;;;9.20;99.90;;;;;;5093491;28;20118;-74
2022/02/14 00:52:57;;;;;;;9.68;2.03;;;9.20;99.90;;;;;;5093525;28;20111;-74
2022/02/14 00:55:23;;;;;;;8.30;1.88;;;9.30;99.90;;;;;;5093442;28;20024;-74
2022/02/14 00:57:49;;;;;;;5.13;1.80;;;9.30;99.90;;;;;;5093962;28;20020;-74
2022/02/14 01:00:16;;;;;;;11.50;2.40;;;9.20;99.90;;;;;;5093423;28;20024;-74
2022/02/14 01:02:42;;;;;;;7.82;1.70;;;9.20;99.90;;;;;;5093957;28;20090;-74
2022/02/14 01:05:09;;;;;;;5.10;1.98;;;9.20;99.90;;;;;;5093195;28;20496;-74
2022/02/14 01:07:35;;;;;;;10.38;2.58;;;9.10;99.90;;;;;;5093368;28;20035;-74
2022/02/14 01:10:01;;;;;;;7.35;1.98;;;9.20;99.90;;;;;;5093267;28;20032;-74
2022/02/14 01:12:28;;;;;;;8.55;2.63;;;9.10;99.90;;;;;;5093344;28;20050;-73
2022/02/14 01:14:54;;;;;;;13.95;4.32;;;9.10;99.90;;;;;;5093252;28;20055;-73
2022/02/14 01:17:20;;;;;;;14.05;5.57;;;9.10;99.90;;;;;;5093229;28;20027;-74
2022/02/14 01:19:46;;;;;;;22.23;11.57;;;9.10;99.90;;;;;;5093246;28;20024;-74
2022/02/14 01:22:12;;;;;;;14.18;3.17;;;9.10;99.90;;;;;;5093189;28;20054;-74
2022/02/14 01:24:37;;;;;;;9.73;3.20;;;9.10;99.90;;;;;;5093208;28;20024;-74
2022/02/14 01:27:04;;;;;;;16.45;3.25;;;9.10;99.90;;;;;;5093424;28;20097;-74
2022/02/14 01:29:31;;;;;;;12.13;3.53;;;9.10;99.90;;;;;;5093080;28;20118;-74
2022/02/14 01:31:57;;;;;;;10.93;2.78;;;9.10;99.90;;;;;;5093425;28;20020;-74
2022/02/14 01:34:23;;;;;;;11.02;2.67;;;9.10;99.90;;;;;;5093429;28;20028;-74
2022/02/14 01:36:49;;;;;;;14.70;3.33;;;9.10;99.90;;;;;;5093432;28;20024;-74
2022/02/14 01:39:15;;;;;;;11.90;2.90;;;9.10;99.90;;;;;;5093625;28;20469;-74
2022/02/14 01:41:41;;;;;;;11.88;2.85;;;9.00;99.90;;;;;;5096049;28;20106;-74
2022/02/14 01:44:33;;;;;;;15.38;3.65;;;9.00;99.90;;;;;;5097003;28;20413;-74
2022/02/14 01:46:59;;;;;;;14.35;3.08;;;9.00;99.90;;;;;;5097324;28;20476;-74
2022/02/14 01:49:25;;;;;;;11.35;2.63;;;9.00;99.90;;;;;;5096868;28;20115;-74
2022/02/14 01:51:50;;;;;;;14.02;2.70;;;9.00;99.90;;;;;;5095604;28;20062;-74
2022/02/14 01:54:16;;;;;;;16.77;3.38;;;9.00;99.90;;;;;;5096986;28;20458;-74
2022/02/14 01:56:42;;;;;;;14.50;2.85;;;9.00;99.90;;;;;;5096779;28;20020;-73
2022/02/14 01:59:08;;;;;;;14.98;2.88;;;9.00;99.90;;;;;;5097084;28;20521;-74
2022/02/14 02:01:34;;;;;;;12.68;2.13;;;8.90;99.90;;;;;;5096656;28;20063;-74
2022/02/14 02:03:59;;;;;;;10.23;2.90;;;8.90;99.90;;;;;;5096568;28;20105;-74
2022/02/14 02:06:25;;;;;;;9.07;2.10;;;8.90;99.90;;;;;;5096593;28;20074;-74
2022/02/14 02:08:51;;;;;;;11.60;2.70;;;8.90;99.90;;;;;;5096483;28;20469;-74
2022/02/14 02:14:01;;;;;;;18.42;2.85;;;8.80;99.90;;;;;;5096768;28;20031;-74
2022/02/14 02:16:26;;;;;;;10.30;2.30;;;8.80;99.90;;;;;;5096434;28;20462;-74
2022/02/14 02:18:52;;;;;;;8.45;2.72;;;8.80;99.90;;;;;;5096375;28;20024;-74
2022/02/14 02:21:18;;;;;;;12.68;2.70;;;8.80;99.90;;;;;;5096642;28;20047;-74
2022/02/14 02:23:47;;;;;;;10.65;2.88;;;8.80;99.90;;;;;;5096329;28;20103;-74
2022/02/14 02:26:13;;;;;;;14.15;3.50;;;8.70;99.90;;;;;;5096236;28;20028;-74
2022/02/14 02:28:38;;;;;;;11.70;3.20;;;8.70;99.90;;;;;;5096160;28;20032;-74
2022/02/14 02:31:05;;;;;;;8.77;2.40;;;8.70;99.90;;;;;;5096377;28;20016;-74
2022/02/14 02:33:32;;;;;;;14.15;3.35;;;8.70;99.90;;;;;;5096370;28;20027;-74
2022/02/14 02:36:01;;;;;;;10.15;3.08;;;8.70;99.90;;;;;;5096327;28;20028;-74
2022/02/14 02:38:27;;;;;;;14.25;4.22;;;8.60;99.90;;;;;;5096042;28;20059;-74
2022/02/14 02:40:52;;;;;;;13.05;2.42;;;8.50;99.90;;;;;;5095958;28;20016;-73
2022/02/14 02:43:18;;;;;;;14.30;2.88;;;8.50;99.90;;;;;;5095863;28;20107;-74
2022/02/14 02:45:45;;;;;;;8.88;2.03;;;8.50;99.90;;;;;;5095886;28;20055;-73
2022/02/14 02:48:11;;;;;;;13.77;2.75;;;8.50;99.90;;;;;;5096352;28;20028;-74
2022/02/14 02:51:01;;;;;;;10.30;2.42;;;8.60;99.90;;;;;;5096292;28;20027;-74
2022/02/14 02:53:26;;;;;;;9.75;2.45;;;8.50;99.90;;;;;;5094735;28;20024;-74
2022/02/14 02:55:52;;;;;;;13.25;3.15;;;8.50;99.90;;;;;;5095568;28;20553;-73
2022/02/14 02:58:17;;;;;;;15.27;3.63;;;8.50;99.90;;;;;;5095609;28;20020;-74
2022/02/14 03:00:43;;;;;;;17.83;4.93;;;8.50;99.90;;;;;;5095811;28;20106;-74
2022/02/14 03:03:09;;;;;;;16.13;4.80;;;8.50;99.90;;;;;;5095352;28;20127;-73
2022/02/14 03:05:34;;;;;;;13.30;3.17;;;8.40;99.90;;;;;;5093996;28;20035;-74
2022/02/14 03:08:00;;;;;;;8.20;2.08;;;8.50;99.90;;;;;;5095429;28;20020;-73
2022/02/14 03:10:26;;;;;;;12.43;2.83;;;8.40;99.90;;;;;;5095293;28;20042;-74
2022/02/14 03:12:51;;;;;;;12.02;2.45;;;8.40;99.90;;;;;;5095349;28;20062;-74
2022/02/14 03:15:17;;;;;;;12.98;2.47;;;8.40;99.90;;;;;;5095319;28;20020;-74
2022/02/14 03:17:42;;;;;;;14.90;4.03;;;8.40;99.90;;;;;;5095220;28;20031;-74
2022/02/14 03:20:09;;;;;;;12.40;3.28;;;8.40;99.90;;;;;;5095210;28;20477;-74
2022/02/14 03:22:34;;;;;;;13.95;2.50;;;8.40;99.90;;;;;;5093847;28;20123;-74
2022/02/14 03:25:00;;;;;;;13.88;3.58;;;8.30;99.90;;;;;;5095121;28;20116;-74
2022/02/14 03:27:26;;;;;;;14.82;3.45;;;8.30;99.90;;;;;;5095067;28;20039;-73
2022/02/14 03:29:51;;;;;;;15.80;4.30;;;8.30;99.90;;;;;;5094958;28;20087;-74
2022/02/14 03:32:17;;;;;;;16.88;3.33;;;8.30;99.90;;;;;;5094987;28;20020;-74
2022/02/14 03:34:43;;;;;;;17.75;6.43;;;8.30;99.90;;;;;;5094914;28;20472;-74
2022/02/14 03:37:08;;;;;;;12.63;3.78;;;8.20;99.90;;;;;;5094944;28;20069;-74
2022/02/14 03:39:34;;;;;;;20.05;4.82;;;8.20;99.90;;;;;;5094848;28;20048;-74
2022/02/14 03:41:59;;;;;;;16.90;3.90;;;8.20;99.90;;;;;;5094515;28;20085;-74
2022/02/14 03:44:25;;;;;;;13.93;3.05;;;8.20;99.90;;;;;;5095023;28;20024;-73
2022/02/14 03:46:51;;;;;;;12.90;3.22;;;8.20;99.90;;;;;;5094978;28;20101;-74
2022/02/14 03:49:16;;;;;;;10.32;3.20;;;8.20;99.90;;;;;;5094817;28;20197;-74
2022/02/14 03:51:43;;;;;;;12.63;2.40;;;8.20;99.90;;;;;;5094568;28;20020;-74
2022/02/14 03:54:09;;;;;;;14.40;2.58;;;8.20;99.90;;;;;;5094730;28;20016;-74
2022/02/14 03:56:35;;;;;;;7.78;2.17;;;8.20;99.90;;;;;;5094776;28;20082;-74
2022/02/14 03:59:00;;;;;;;11.40;2.47;;;8.20;99.90;;;;;;5094459;28;20394;-74
2022/02/14 04:01:26;;;;;;;9.98;2.53;;;8.20;99.90;;;;;;5094637;28;20039;-74
2022/02/14 04:03:52;;;;;;;13.15;3.03;;;8.20;99.90;;;;;;5094137;28;20088;-74
2022/02/14 04:06:18;;;;;;;9.23;2.10;;;8.20;99.90;;;;;;5094254;28;20042;-73
2022/02/14 04:08:43;;;;;;;13.68;2.55;;;8.10;99.90;;;;;;5094148;28;20020;-74
2022/02/14 04:11:09;;;;;;;14.35;3.05;;;8.10;99.90;;;;;;5094230;28;20100;-74
2022/02/14 04:13:35;;;;;;;11.88;2.72;;;8.10;99.90;;;;;;5094243;28;20528;-74
2022/02/14 04:16:00;;;;;;;13.13;3.15;;;8.10;99.90;;;;;;5094095;28;20460;-74
2022/02/14 04:18:27;;;;;;;9.57;2.60;;;8.10;99.90;;;;;;5094355;28;20020;-74
2022/02/14 04:20:52;;;;;;;15.20;3.60;;;8.10;99.90;;;;;;5094337;28;20015;-73
2022/02/14 04:23:18;;;;;;;12.88;3.45;;;8.00;99.90;;;;;;5094245;28;20081;-74
2022/02/14 04:25:44;;;;;;;17.85;3.95;;;8.00;99.90;;;;;;5093921;28;20028;-74
2022/02/14 04:28:09;;;;;;;15.52;3.88;;;8.00;99.90;;;;;;5093881;28;20166;-74
2022/02/14 04:30:35;;;;;;;10.63;3.25;;;8.00;99.90;;;;;;5093798;28;20477;-74
2022/02/14 04:33:01;;;;;;;10.88;2.13;;;8.10;99.90;;;;;;5093816;28;20024;-74
2022/02/14 04:35:29;;;;;;;16.05;3.00;;;8.00;99.90;;;;;;5093760;28;20047;-74
2022/02/14 04:37:58;;;;;;;7.78;2.78;;;8.00;99.90;;;;;;5093766;28;20027;-74
2022/02/14 04:40:25;;;;;;;15.23;2.33;;;8.00;99.90;;;;;;5094012;28;20027;-74
2022/02/14 04:42:51;;;;;;;13.68;3.30;;;8.00;99.90;;;;;;5093690;28;20040;-74
2022/02/14 04:45:16;;;;;;;11.43;3.08;;;8.00;99.90;;;;;;5093887;28;20028;-73
2022/02/14 04:47:42;;;;;;;11.55;3.17;;;8.00;99.90;;;;;;5093863;28;20027;-74
2022/02/14 04:50:09;;;;;;;18.73;3.08;;;8.00;99.90;;;;;;5093535;28;20024;-73
2022/02/14 04:52:34;;;;;;;12.63;3.13;;;8.00;99.90;;;;;;5093614;28;20012;-74
2022/02/14 04:55:00;;;;;;;13.07;3.10;;;8.00;99.90;;;;;;5093464;28;20021;-73
2022/02/14 04:57:26;;;;;;;11.07;2.78;;;8.00;99.90;;;;;;5093506;28;20081;-73
2022/02/14 04:59:51;;;;;;;10.70;3.42;;;8.00;99.90;;;;;;5093452;28;20389;-74
2022/02/14 05:02:17;;;;;;;9.82;3.30;;;8.00;99.90;;;;;;5092159;28;20039;-74
2022/02/14 05:04:42;;;;;;;17.33;4.15;;;8.00;99.90;;;;;;5091722;28;20075;-74
2022/02/14 05:07:08;;;;;;;14.65;5.40;;;8.00;99.90;;;;;;5093300;28;20386;-74
2022/02/14 05:09:34;;;;;;;14.68;7.35;;;8.00;99.90;;;;;;5093284;28;20066;-73
2022/02/14 05:12:00;;;;;;;13.88;4.38;;;8.00;99.90;;;;;;5093288;28;20065;-74
2022/02/14 05:14:26;;;;;;;18.08;4.30;;;8.00;99.90;;;;;;5093359;28;20019;-74
2022/02/14 05:16:51;;;;;;;15.48;6.15;;;8.00;99.90;;;;;;5099665;28;20024;-74
2022/02/14 05:19:17;;;;;;;8.98;3.30;;;8.00;99.90;;;;;;5100075;28;20028;-74
2022/02/14 05:21:43;;;;;;;14.63;4.65;;;7.90;99.90;;;;;;5100024;28;20031;-74
2022/02/14 05:24:08;;;;;;;16.25;4.05;;;7.90;99.90;;;;;;5100262;28;20020;-74
2022/02/14 05:26:35;;;;;;;13.38;2.40;;;7.90;99.90;;;;;;5100286;28;20389;-74
2022/02/14 05:29:00;;;;;;;13.80;4.28;;;7.90;99.90;;;;;;5100660;28;20425;-73
2022/02/14 05:31:27;;;;;;;13.13;3.60;;;7.80;99.90;;;;;;5099918;28;20062;-74
2022/02/14 05:33:53;;;;;;;22.02;7.18;;;7.90;99.90;;;;;;5099890;28;20034;-73
2022/02/14 05:36:19;;;;;;;10.27;4.70;;;7.90;99.90;;;;;;5099908;28;20477;-74
2022/02/14 05:38:46;;;;;;;10.35;3.10;;;8.00;99.90;;;;;;5098570;28;20082;-73
2022/02/14 05:41:11;;;;;;;17.75;5.05;;;7.90;99.90;;;;;;5099839;28;20030;-73
2022/02/14 05:43:37;;;;;;;14.68;4.65;;;7.90;99.90;;;;;;5099741;28;20122;-73
2022/02/14 05:46:03;;;;;;;14.10;4.45;;;7.80;99.90;;;;;;5099763;28;20038;-74
2022/02/14 05:48:28;;;;;;;14.75;5.97;;;7.80;99.90;;;;;;5099648;28;20082;-74
2022/02/14 05:50:54;;;;;;;14.82;6.78;;;7.80;99.90;;;;;;5099684;28;20069;-73
2022/02/14 05:53:19;;;;;;;8.73;3.25;;;7.80;99.90;;;;;;5099672;28;20039;-74
2022/02/14 05:55:45;;;;;;;12.10;3.53;;;7.80;99.90;;;;;;5099828;28;20020;-73
2022/02/14 05:58:11;;;;;;;8.30;2.35;;;7.70;99.90;;;;;;5099897;28;20024;-73
2022/02/14 06:00:36;;;;;;;12.27;3.70;;;7.70;99.90;;;;;;5099634;28;20020;-74
2022/02/14 06:03:02;;;;;;;14.98;8.18;;;7.70;99.90;;;;;;5099399;28;20043;-74
2022/02/14 06:05:27;;;;;;;16.80;10.45;;;7.70;99.90;;;;;;5099576;28;20020;-74
2022/02/14 06:07:53;;;;;;;19.63;8.43;;;7.60;99.90;;;;;;5099581;28;20020;-73
2022/02/14 06:10:19;;;;;;;18.58;10.88;;;7.60;99.90;;;;;;5100053;28;20031;-74
2022/02/14 06:12:44;;;;;;;18.83;11.27;;;7.70;99.90;;;;;;5099496;28;20019;-74
2022/02/14 06:15:10;;;;;;;16.77;11.95;;;7.50;99.90;;;;;;5100068;28;20016;-73
2022/02/14 06:17:37;;;;;;;17.00;8.70;;;7.50;99.90;;;;;;5099339;28;20040;-73
2022/02/14 06:20:03;;;;;;;19.55;13.80;;;7.50;99.90;;;;;;5099425;28;20024;-74
2022/02/14 06:22:29;;;;;;;24.23;15.10;;;7.50;99.90;;;;;;5099464;28;20035;-73
2022/02/14 06:24:54;;;;;;;17.30;8.77;;;7.50;99.90;;;;;;5099668;28;20023;-74
2022/02/14 06:27:20;;;;;;;13.55;4.13;;;7.50;99.90;;;;;;5096628;28;20032;-74
2022/02/14 06:29:46;;;;;;;17.85;8.93;;;7.50;99.90;;;;;;5096153;28;20020;-74
2022/02/14 06:32:14;;;;;;;14.95;6.30;;;7.40;99.90;;;;;;5096383;28;20499;-73
2022/02/14 06:34:40;;;;;;;12.05;5.63;;;7.50;99.90;;;;;;5096416;28;20024;-74
2022/02/14 06:37:05;;;;;;;12.25;4.10;;;7.50;99.90;;;;;;5096396;28;20027;-74
2022/02/14 06:39:32;;;;;;;50.28;27.67;;;7.50;99.90;;;;;;5095974;28;20382;-73
2022/02/14 06:41:58;;;;;;;71.85;33.80;;;7.50;99.90;;;;;;5095962;28;20099;-73
2022/02/14 06:44:24;;;;;;;47.33;26.10;;;7.50;99.90;;;;;;5096167;28;20038;-73
2022/02/14 06:46:52;;;;;;;28.52;13.82;;;7.50;99.90;;;;;;5095894;28;20070;-74
2022/02/14 06:49:17;;;;;;;34.35;17.45;;;7.50;99.90;;;;;;5095747;28;20020;-74
2022/02/14 06:51:43;;;;;;;37.60;18.95;;;7.50;99.90;;;;;;5096033;28;20016;-74
2022/02/14 06:54:09;;;;;;;42.20;23.33;;;7.50;99.90;;;;;;5095680;28;20020;-73
2022/02/14 06:56:34;;;;;;;28.75;13.05;;;7.60;99.90;;;;;;5095657;28;20374;-74
2022/02/14 06:59:00;;;;;;;57.70;30.25;;;7.50;99.90;;;;;;5095610;28;20026;-73
2022/02/14 07:01:26;;;;;;;59.60;22.35;;;7.50;99.90;;;;;;5095590;28;20108;-74
2022/02/14 07:03:51;;;;;;;34.10;17.17;;;7.50;99.90;;;;;;5095369;28;20051;-73
2022/02/14 07:06:17;;;;;;;102.80;48.00;;;7.30;99.90;;;;;;5095713;28;20550;-73
2022/02/14 07:08:44;;;;;;;82.50;43.63;;;7.20;99.90;;;;;;5095383;28;20056;-73
2022/02/14 07:11:10;;;;;;;48.55;31.88;;;7.30;99.90;;;;;;5095425;28;20440;-73
2022/02/14 07:13:35;;;;;;;45.85;28.30;;;7.20;99.90;;;;;;5095354;28;20362;-74
2022/02/14 07:16:01;;;;;;;31.63;22.13;;;7.20;99.90;;;;;;5095295;28;20035;-74
2022/02/14 07:18:28;;;;;;;24.00;11.60;;;7.10;99.90;;;;;;5095253;28;20091;-73
2022/02/14 07:20:54;;;;;;;26.38;15.88;;;7.00;99.90;;;;;;5095502;28;20403;-74
2022/02/14 07:23:20;;;;;;;16.13;10.63;;;7.10;99.90;;;;;;5095160;28;20025;-73
2022/02/14 07:25:46;;;;;;;17.85;8.32;;;7.00;99.90;;;;;;5095163;28;20454;-74
2022/02/14 07:28:12;;;;;;;21.38;14.00;;;7.00;99.90;;;;;;5095035;28;20024;-73
2022/02/14 07:30:37;;;;;;;16.83;8.40;;;6.90;99.90;;;;;;5094982;28;20035;-74
2022/02/14 07:33:03;;;;;;;20.15;10.90;;;7.00;99.90;;;;;;5094956;28;20385;-73
2022/02/14 07:35:29;;;;;;;13.38;5.07;;;7.10;99.90;;;;;;5094931;28;20056;-74
2022/02/14 07:37:54;;;;;;;17.42;10.65;;;7.10;99.90;;;;;;5094491;28;20380;-74
2022/02/14 07:40:20;;;;;;;14.88;8.57;;;7.00;99.90;;;;;;5095374;28;20028;-73
2022/02/14 07:42:46;;;;;;;12.82;5.35;;;7.20;99.90;;;;;;5095331;28;20020;-74
2022/02/14 07:45:12;;;;;;;10.70;3.78;;;7.20;99.90;;;;;;5094738;28;20058;-74
2022/02/14 07:47:37;;;;;;;13.02;4.10;;;7.30;99.90;;;;;;5094670;28;20069;-74
2022/02/14 07:50:06;;;;;;;11.30;4.00;;;7.30;99.90;;;;;;5094509;28;20032;-74
2022/02/14 07:52:35;;;;;;;12.80;4.00;;;7.30;99.90;;;;;;5095119;28;20427;-74
2022/02/14 07:55:03;;;;;;;11.65;5.13;;;7.20;99.90;;;;;;5094459;28;20016;-74
2022/02/14 07:57:29;;;;;;;9.73;3.10;;;7.30;99.90;;;;;;5095093;28;20023;-74
2022/02/14 07:59:55;;;;;;;11.85;3.67;;;7.30;99.90;;;;;;5094482;28;20024;-74
2022/02/14 08:02:21;;;;;;;6.72;2.35;;;7.40;99.90;;;;;;5094366;28;20106;-74
2022/02/14 08:04:47;;;;;;;16.55;4.70;;;7.40;99.90;;;;;;5093916;28;20126;-73
2022/02/14 08:07:13;;;;;;;14.18;8.18;;;7.40;99.90;;;;;;5094378;28;20032;-73
2022/02/14 08:09:39;;;;;;;9.05;3.63;;;7.40;99.90;;;;;;5094492;28;20035;-73
2022/02/14 08:12:08;;;;;;;12.90;7.95;;;7.50;99.90;;;;;;5094261;28;20017;-73
2022/02/14 08:14:34;;;;;;;13.05;3.13;;;7.50;99.90;;;;;;5094717;28;20023;-73
2022/02/14 08:17:01;;;;;;;10.65;6.85;;;7.60;99.90;;;;;;5094407;28;20073;-74
2022/02/14 08:19:27;;;;;;;11.30;4.00;;;7.70;99.90;;;;;;5094086;28;20439;-74
2022/02/14 08:21:53;;;;;;;9.77;4.32;;;7.80;99.90;;;;;;5094337;28;20066;-74
2022/02/14 08:24:18;;;;;;;13.13;3.53;;;7.90;99.90;;;;;;5094292;28;20469;-74
2022/02/14 08:26:44;;;;;;;13.75;6.47;;;8.10;99.90;;;;;;5092665;28;20031;-74
2022/02/14 08:29:11;;;;;;;9.57;4.50;;;8.20;99.90;;;;;;5093854;28;20035;-74
2022/02/14 08:31:37;;;;;;;13.98;5.32;;;8.20;99.90;;;;;;5092566;28;20070;-79
2022/02/14 08:34:03;;;;;;;10.00;4.30;;;8.30;99.90;;;;;;5094653;28;20020;-76
2022/02/14 08:36:29;;;;;;;9.38;3.70;;;8.40;99.90;;;;;;5093526;28;20061;-76
2022/02/14 08:38:55;;;;;;;7.75;2.22;;;8.40;99.90;;;;;;5094255;28;20115;-75
2022/02/14 08:41:21;;;;;;;9.57;3.28;;;8.30;99.90;;;;;;5093970;28;20184;-78
2022/02/14 08:43:51;;;;;;;10.40;5.97;;;8.30;99.90;;;;;;5099068;28;20058;-77
2022/02/14 08:46:21;;;;;;;7.20;2.83;;;8.30;99.90;;;;;;5113972;28;20032;-80
2022/02/14 08:48:47;;;;;;;8.38;1.98;;;8.20;99.90;;;;;;5113907;28;20492;-78
2022/02/14 08:51:14;;;;;;;7.00;2.03;;;8.20;99.90;;;;;;5113635;28;20027;-76
2022/02/14 08:53:39;;;;;;;7.93;3.15;;;8.20;99.90;;;;;;5110421;28;20043;-74
2022/02/14 08:56:07;;;;;;;14.02;2.58;;;8.20;99.90;;;;;;5092099;28;20051;-76
2022/02/14 08:58:34;;;;;;;7.30;2.70;;;8.20;99.90;;;;;;5108162;28;20027;-75
2022/02/14 09:01:02;;;;;;;8.38;2.75;;;8.20;99.90;;;;;;5114059;28;20055;-77
2022/02/14 09:03:28;;;;;;;11.65;2.30;;;8.30;99.90;;;;;;5111168;28;20071;-77
2022/02/14 09:05:54;;;;;;;5.82;2.80;;;8.30;99.90;;;;;;5093641;28;20513;-76
2022/02/14 09:08:20;;;;;;;10.20;3.30;;;8.30;99.90;;;;;;5093342;28;20027;-77
2022/02/14 09:10:46;;;;;;;9.32;3.42;;;8.40;99.90;;;;;;5094077;28;20085;-75
2022/02/14 09:13:12;;;;;;;6.72;2.17;;;8.40;99.90;;;;;;5093779;28;20035;-76
2022/02/14 09:15:38;;;;;;;5.88;1.98;;;8.50;99.90;;;;;;5094376;28;20020;-75
2022/02/14 09:18:04;;;;;;;8.95;2.75;;;8.60;99.90;;;;;;5093963;28;20077;-76
2022/02/14 09:20:30;;;;;;;10.85;2.40;;;8.50;99.90;;;;;;5093228;28;20024;-78
2022/02/14 09:22:56;;;;;;;8.02;2.35;;;8.50;99.90;;;;;;5093207;28;20031;-76
2022/02/14 09:25:23;;;;;;;8.48;1.63;;;8.60;99.90;;;;;;5111175;28;20019;-76
2022/02/14 09:27:49;;;;;;;7.22;1.80;;;8.80;99.90;;;;;;5113111;28;20110;-75
2022/02/14 09:30:16;;;;;;;6.22;1.77;;;9.20;99.90;;;;;;5113938;28;20020;-77
2022/02/14 09:32:41;;;;;;;4.80;1.30;;;9.60;99.90;;;;;;5112684;28;20023;-76
2022/02/14 09:35:07;;;;;;;6.50;1.27;;;10.30;99.90;;;;;;5095236;28;20077;-77
2022/02/14 09:37:33;;;;;;;3.83;1.20;;;10.90;99.90;;;;;;5093128;28;20503;-75
2022/02/14 09:40:00;;;;;;;4.03;1.10;;;11.40;99.90;;;;;;5094957;28;20016;-74
2022/02/14 09:42:25;;;;;;;7.72;1.70;;;11.80;99.90;;;;;;5111499;28;20063;-74
2022/02/14 09:44:51;;;;;;;7.95;1.88;;;11.80;99.90;;;;;;5113020;28;20047;-74
2022/02/14 09:47:17;;;;;;;4.97;1.38;;;11.80;99.90;;;;;;5113900;28;20028;-76
2022/02/14 09:49:43;;;;;;;6.60;1.50;;;12.10;99.90;;;;;;5111729;28;20532;-77
2022/02/14 09:52:10;;;;;;;6.38;1.25;;;12.20;99.90;;;;;;5092781;28;20085;-78
2022/02/14 09:54:37;;;;;;;8.77;1.70;;;12.30;99.90;;;;;;5091580;28;20480;-76
2022/02/14 09:57:03;;;;;;;4.85;1.40;;;12.40;99.90;;;;;;5113090;28;20066;-79
2022/02/14 09:59:29;;;;;;;7.20;1.25;;;12.50;99.90;;;;;;5113208;28;20084;-78
2022/02/14 10:01:55;;;;;;;4.25;1.67;;;12.60;99.90;;;;;;5114396;28;20481;-77
2022/02/14 10:04:22;;;;;;;4.18;1.38;;;12.50;99.90;;;;;;5116957;28;20181;-78
2022/02/14 10:06:49;;;;;;;7.95;1.40;;;12.60;99.90;;;;;;5099089;28;20031;-78
2022/02/14 10:09:21;;;;;;;8.45;1.55;;;12.90;99.90;;;;;;5097007;28;20027;-75
2022/02/14 10:11:59;;;;;;;8.27;1.67;;;13.10;99.90;;;;;;5097119;28;20112;-80
2022/02/14 10:14:25;;;;;;;7.15;1.52;;;13.00;99.90;;;;;;5097278;28;20016;-80
2022/02/14 10:17:05;;;;;;;8.05;1.60;;;12.80;99.90;;;;;;5112976;28;20028;-79
2022/02/14 10:19:34;;;;;;;11.60;2.40;;;12.50;99.90;;;;;;5116142;28;20019;-76
2022/02/14 10:22:01;;;;;;;10.18;2.17;;;12.10;99.90;;;;;;5117295;28;20031;-80
2022/02/14 10:24:27;;;;;;;10.32;2.03;;;12.10;99.90;;;;;;5105813;28;20099;-78
2022/02/14 10:26:54;;;;;;;10.05;2.10;;;12.20;99.90;;;;;;5096381;28;20051;-78
2022/02/14 10:29:30;;;;;;;8.43;2.00;;;12.10;99.90;;;;;;5096230;28;20043;-78
2022/02/14 10:32:00;;;;;;;8.07;1.70;;;11.90;99.90;;;;;;5096745;28;20031;-77
2022/02/14 10:34:35;;;;;;;;;;;11.60;99.90;;;;;;5106125;28;20031;-76
2022/02/14 10:37:01;;;;;;;11.48;2.30;;;11.40;99.90;;;;;;5116194;28;20339;-79
2022/02/14 10:39:28;;;;;;;7.35;1.45;;;11.40;99.90;;;;;;5116003;28;20051;-77
2022/02/14 10:42:03;;;;;;;4.55;1.52;;;11.30;99.90;;;;;;5116321;28;20080;-77
2022/02/14 10:47:26;;;;;;;9.48;1.45;;;11.40;99.90;;;;;;5097200;28;20524;-77
2022/02/14 10:50:04;;;;;;;8.27;1.65;;;11.50;99.90;;;;;;5096010;28;20032;-76
2022/02/14 10:52:53;;;;;;;11.05;2.03;;;11.50;99.90;;;;;;5095954;28;20052;-77
2022/02/14 10:55:26;;;;;;;9.27;2.03;;;11.50;99.90;;;;;;5095871;28;20031;-76
2022/02/14 10:57:52;;;;;;;8.00;2.08;;;11.50;99.90;;;;;;5096178;28;20027;-76
2022/02/14 11:00:38;;;;;;;12.63;2.45;;;11.50;99.90;;;;;;5095635;28;20035;-77
2022/02/14 11:03:10;;;;;;;11.88;3.92;;;11.50;99.90;;;;;;5095710;28;20024;-77
2022/02/14 11:05:40;;;;;;;5.70;1.90;;;11.40;99.90;;;;;;5095514;28;20028;-76
2022/02/14 11:08:08;;;;;;;;;;;11.40;99.90;;;;;;5099092;28;20020;-76
2022/02/14 11:10:34;;;;;;;13.43;3.20;;;11.40;99.90;;;;;;5095374;28;19933;-76
2022/02/14 11:13:02;;;;;;;7.28;2.45;;;11.40;99.90;;;;;;5094588;28;20063;-80
2022/02/14 11:15:33;;;;;;;9.30;2.08;;;11.40;99.90;;;;;;5095968;28;20012;-77
2022/02/14 11:18:08;;;;;;;9.57;2.10;;;11.50;99.90;;;;;;5107670;28;20020;-80
2022/02/14 11:20:34;;;;;;;11.07;2.45;;;11.80;99.90;;;;;;5105031;28;20106;-77
2022/02/14 11:23:01;;;;;;;8.85;2.10;;;11.80;99.90;;;;;;5095141;28;20111;-77
2022/02/14 11:26:15;;;;;;;8.75;2.22;;;11.80;99.90;;;;;;5095450;28;20485;-79
2022/02/14 11:29:07;;;;;;;8.80;2.63;;;11.80;99.90;;;;;;5028394;28;20033;-76
2022/02/14 11:31:34;;;;;;;7.45;2.00;;;11.80;99.90;;;;;;4996757;28;20025;-76
2022/02/14 11:34:05;;;;;;;11.27;2.13;;;11.90;99.90;;;;;;5072083;28;20070;-76
2022/02/14 11:36:33;;;;;;;8.60;1.88;;;11.80;99.90;;;;;;5095259;28;20070;-76
2022/02/14 11:39:05;;;;;;;9.82;3.00;;;11.80;99.90;;;;;;5094915;28;20031;-76
2022/02/14 11:41:35;;;;;;;7.10;1.88;;;11.80;99.90;;;;;;5094853;28;20103;-75
2022/02/14 11:44:22;;;;;;;8.77;2.30;;;11.90;99.90;;;;;;5095050;28;20024;-76
2022/02/14 11:46:53;;;;;;;9.23;2.63;;;11.90;99.90;;;;;;5095350;28;20374;-76
2022/02/14 11:49:35;;;;;;;9.88;2.45;;;12.00;99.90;;;;;;5094601;28;20028;-75
2022/02/14 11:52:00;;;;;;;12.40;2.47;;;12.10;99.90;;;;;;5094924;28;20069;-76
2022/02/14 11:54:32;;;;;;;10.07;1.70;;;12.20;99.90;;;;;;5110210;28;20024;-76
2022/02/14 11:57:18;;;;;;;7.72;1.65;;;12.30;99.90;;;;;;5094544;28;20020;-76
2022/02/14 11:59:45;;;;;;;6.40;1.65;;;12.30;99.90;;;;;;5080281;28;20052;-76
2022/02/14 12:02:11;;;;;;;6.13;1.90;;;12.10;99.90;;;;;;5094431;28;20111;-76
2022/02/14 12:04:44;;;;;;;2.78;0.50;;;11.90;99.90;;;;;;5094206;28;20131;-76
2022/02/14 12:07:38;;;;;;;2.75;0.73;;;11.30;99.90;;;;;;5094636;28;20077;-75
2022/02/14 12:10:24;;;;;;;3.65;0.90;;;10.20;99.90;;;;;;5094182;28;20028;-76
2022/02/14 12:12:54;;;;;;;2.00;1.10;;;9.60;99.90;;;;;;5094848;28;20016;-76
2022/02/14 12:21:21;;;;;;;0.25;0.20;;;9.00;99.90;;;;;;5094378;28;20050;-76
2022/02/14 12:23:50;;;;;;;1.52;0.43;;;8.90;99.90;;;;;;5094375;28;20031;-76
2022/02/14 12:26:22;;;;;;;0.20;0.20;;;8.90;99.90;;;;;;5093057;28;20024;-75
2022/02/14 12:31:40;;;;;;;1.58;0.95;;;9.10;99.90;;;;;;5094493;28;20027;-75
2022/02/14 12:34:06;;;;;;;1.02;0.90;;;9.20;99.90;;;;;;5094464;28;20107;-76
2022/02/14 12:36:31;;;;;;;0.82;0.60;;;9.10;99.90;;;;;;5093790;28;20121;-76
2022/02/14 12:38:57;;;;;;;1.75;0.73;;;9.10;99.90;;;;;;5093747;28;20020;-76
2022/02/14 12:41:23;;;;;;;0.47;0.47;;;9.20;99.90;;;;;;5093925;28;20021;-75
2022/02/14 12:43:51;;;;;;;1.10;0.52;;;9.30;99.90;;;;;;5093934;28;20026;-75
2022/02/14 12:46:22;;;;;;;0.55;0.35;;;9.40;99.90;;;;;;5093921;28;20028;-76
2022/02/14 12:48:49;;;;;;;1.77;1.17;;;9.50;99.90;;;;;;5093856;28;20048;-76
2022/02/14 12:51:26;;;;;;;1.15;0.70;;;9.50;99.90;;;;;;5093616;28;20024;-75
2022/02/14 12:53:54;;;;;;;0.63;0.30;;;9.60;99.90;;;;;;5093791;28;20069;-75
2022/02/14 12:56:21;;;;;;;7.32;3.40;;;9.60;99.90;;;;;;5093266;28;20056;-76
2022/02/14 12:58:55;;;;;;;1.08;0.57;;;9.60;99.90;;;;;;5093545;28;20020;-75
2022/02/14 13:01:27;;;;;;;0.77;0.70;;;9.70;99.90;;;;;;5093861;28;20070;-76
2022/02/14 13:03:57;;;;;;;4.25;1.10;;;9.80;99.90;;;;;;5093358;28;20051;-76